sensor_id;sensor_type;location;lat;lon;timestamp;P1;durP1;ratioP1;P2;durP2;ratioP2
63653;SDS011;49809;47.418;19.080;2023-04-07T00:03:23;7.37;;;4.22;;
63653;SDS011;49809;47.418;19.080;2023-04-07T00:07:11;9.32;;;6.20;;
63653;SDS011;49809;47.418;19.080;2023-04-07T00:11:01;8.35;;;4.85;;
63653;SDS011;49809;47.418;19.080;2023-04-07T00:19:30;7.00;;;4.47;;
63653;SDS011;49809;47.418;19.080;2023-04-07T00:22:55;13.20;;;5.43;;
63653;SDS011;49809;47.418;19.080;2023-04-07T00:25:58;9.30;;;5.15;;
63653;SDS011;49809;47.418;19.080;2023-04-07T00:29:25;7.07;;;4.68;;
63653;SDS011;49809;47.418;19.080;2023-04-07T00:32:48;9.27;;;5.65;;
63653;SDS011;49809;47.418;19.080;2023-04-07T00:36:40;5.22;;;4.32;;
63653;SDS011;49809;47.418;19.080;2023-04-07T00:39:59;9.65;;;5.65;;
63653;SDS011;49809;47.418;19.080;2023-04-07T00:43:23;6.37;;;4.35;;
63653;SDS011;49809;47.418;19.080;2023-04-07T00:46:49;10.80;;;5.65;;
63653;SDS011;49809;47.418;19.080;2023-04-07T00:54:26;9.32;;;5.55;;
63653;SDS011;49809;47.418;19.080;2023-04-07T00:58:32;9.63;;;5.62;;
63653;SDS011;49809;47.418;19.080;2023-04-07T01:02:31;8.63;;;4.68;;
63653;SDS011;49809;47.418;19.080;2023-04-07T01:06:25;9.88;;;5.28;;
63653;SDS011;49809;47.418;19.080;2023-04-07T01:10:14;12.20;;;5.57;;
63653;SDS011;49809;47.418;19.080;2023-04-07T01:14:08;8.65;;;5.87;;
63653;SDS011;49809;47.418;19.080;2023-04-07T01:17:41;6.07;;;5.40;;
63653;SDS011;49809;47.418;19.080;2023-04-07T01:21:14;9.05;;;4.87;;
63653;SDS011;49809;47.418;19.080;2023-04-07T01:32:50;10.13;;;4.72;;
63653;SDS011;49809;47.418;19.080;2023-04-07T01:40:27;8.02;;;5.68;;
63653;SDS011;49809;47.418;19.080;2023-04-07T01:44:35;13.52;;;5.93;;
63653;SDS011;49809;47.418;19.080;2023-04-07T01:56:28;6.22;;;4.50;;
63653;SDS011;49809;47.418;19.080;2023-04-07T01:59:35;7.37;;;4.55;;
63653;SDS011;49809;47.418;19.080;2023-04-07T02:03:08;5.93;;;4.03;;
63653;SDS011;49809;47.418;19.080;2023-04-07T02:06:53;6.68;;;4.40;;
63653;SDS011;49809;47.418;19.080;2023-04-07T02:10:58;10.73;;;5.18;;
63653;SDS011;49809;47.418;19.080;2023-04-07T02:14:44;6.07;;;3.97;;
63653;SDS011;49809;47.418;19.080;2023-04-07T02:18:49;9.32;;;4.85;;
63653;SDS011;49809;47.418;19.080;2023-04-07T02:22:52;10.50;;;4.70;;
63653;SDS011;49809;47.418;19.080;2023-04-07T02:26:36;9.27;;;5.43;;
63653;SDS011;49809;47.418;19.080;2023-04-07T02:30:23;13.20;;;5.40;;
63653;SDS011;49809;47.418;19.080;2023-04-07T02:34:28;8.25;;;5.50;;
63653;SDS011;49809;47.418;19.080;2023-04-07T02:38:42;8.15;;;4.60;;
63653;SDS011;49809;47.418;19.080;2023-04-07T02:42:10;10.60;;;5.05;;
63653;SDS011;49809;47.418;19.080;2023-04-07T02:46:14;9.32;;;5.72;;
63653;SDS011;49809;47.418;19.080;2023-04-07T02:49:59;6.97;;;4.97;;
63653;SDS011;49809;47.418;19.080;2023-04-07T02:53:52;8.93;;;5.55;;
63653;SDS011;49809;47.418;19.080;2023-04-07T02:57:28;10.23;;;4.40;;
63653;SDS011;49809;47.418;19.080;2023-04-07T03:01:38;10.57;;;5.25;;
63653;SDS011;49809;47.418;19.080;2023-04-07T03:05:25;8.80;;;5.00;;
63653;SDS011;49809;47.418;19.080;2023-04-07T03:09:36;10.80;;;6.15;;
63653;SDS011;49809;47.418;19.080;2023-04-07T03:13:41;6.70;;;4.60;;
63653;SDS011;49809;47.418;19.080;2023-04-07T03:17:26;5.57;;;3.40;;
63653;SDS011;49809;47.418;19.080;2023-04-07T03:21:30;5.78;;;3.80;;
63653;SDS011;49809;47.418;19.080;2023-04-07T03:25:15;10.70;;;5.05;;
63653;SDS011;49809;47.418;19.080;2023-04-07T03:29:25;6.15;;;3.97;;
63653;SDS011;49809;47.418;19.080;2023-04-07T03:33:37;6.97;;;4.47;;
63653;SDS011;49809;47.418;19.080;2023-04-07T03:37:42;11.82;;;6.10;;
63653;SDS011;49809;47.418;19.080;2023-04-07T03:41:52;10.35;;;5.28;;
63653;SDS011;49809;47.418;19.080;2023-04-07T03:45:38;8.57;;;4.05;;
63653;SDS011;49809;47.418;19.080;2023-04-07T03:49:44;5.65;;;4.00;;
63653;SDS011;49809;47.418;19.080;2023-04-07T03:53:28;11.12;;;5.82;;
63653;SDS011;49809;47.418;19.080;2023-04-07T03:57:34;10.20;;;4.62;;
63653;SDS011;49809;47.418;19.080;2023-04-07T04:01:18;8.02;;;5.53;;
63653;SDS011;49809;47.418;19.080;2023-04-07T04:05:03;7.65;;;4.70;;
63653;SDS011;49809;47.418;19.080;2023-04-07T04:08:25;12.77;;;4.30;;
63653;SDS011;49809;47.418;19.080;2023-04-07T04:12:14;8.25;;;5.40;;
63653;SDS011;49809;47.418;19.080;2023-04-07T04:16:30;6.40;;;4.57;;
63653;SDS011;49809;47.418;19.080;2023-04-07T04:20:38;8.20;;;4.75;;
63653;SDS011;49809;47.418;19.080;2023-04-07T04:24:30;7.10;;;4.68;;
63653;SDS011;49809;47.418;19.080;2023-04-07T04:28:35;7.97;;;4.47;;
63653;SDS011;49809;47.418;19.080;2023-04-07T04:32:49;8.85;;;4.95;;
63653;SDS011;49809;47.418;19.080;2023-04-07T04:36:16;11.85;;;4.90;;
63653;SDS011;49809;47.418;19.080;2023-04-07T04:40:09;6.03;;;4.43;;
63653;SDS011;49809;47.418;19.080;2023-04-07T04:43:59;14.15;;;6.28;;
63653;SDS011;49809;47.418;19.080;2023-04-07T04:47:35;10.40;;;4.65;;
63653;SDS011;49809;47.418;19.080;2023-04-07T04:51:46;7.57;;;5.68;;
63653;SDS011;49809;47.418;19.080;2023-04-07T04:55:55;9.32;;;4.93;;
63653;SDS011;49809;47.418;19.080;2023-04-07T04:59:39;8.85;;;5.93;;
63653;SDS011;49809;47.418;19.080;2023-04-07T05:03:45;7.30;;;5.53;;
63653;SDS011;49809;47.418;19.080;2023-04-07T05:07:32;6.10;;;4.22;;
63653;SDS011;49809;47.418;19.080;2023-04-07T05:11:16;6.78;;;4.47;;
63653;SDS011;49809;47.418;19.080;2023-04-07T05:15:22;8.02;;;4.95;;
63653;SDS011;49809;47.418;19.080;2023-04-07T05:19:19;8.68;;;5.25;;
63653;SDS011;49809;47.418;19.080;2023-04-07T05:23:17;5.93;;;4.17;;
63653;SDS011;49809;47.418;19.080;2023-04-07T05:27:26;8.95;;;5.82;;
63653;SDS011;49809;47.418;19.080;2023-04-07T05:31:29;9.70;;;5.68;;
63653;SDS011;49809;47.418;19.080;2023-04-07T05:35:00;9.65;;;4.90;;
63653;SDS011;49809;47.418;19.080;2023-04-07T05:39:05;8.57;;;4.75;;
63653;SDS011;49809;47.418;19.080;2023-04-07T05:43:15;8.35;;;5.35;;
63653;SDS011;49809;47.418;19.080;2023-04-07T05:46:52;10.07;;;6.05;;
63653;SDS011;49809;47.418;19.080;2023-04-07T05:50:57;7.68;;;3.90;;
63653;SDS011;49809;47.418;19.080;2023-04-07T05:55:05;7.75;;;4.60;;
63653;SDS011;49809;47.418;19.080;2023-04-07T05:59:14;11.77;;;5.85;;
63653;SDS011;49809;47.418;19.080;2023-04-07T06:02:34;10.38;;;5.50;;
63653;SDS011;49809;47.418;19.080;2023-04-07T06:06:09;12.37;;;6.00;;
63653;SDS011;49809;47.418;19.080;2023-04-07T06:09:56;8.43;;;5.20;;
63653;SDS011;49809;47.418;19.080;2023-04-07T06:13:43;10.02;;;5.35;;
63653;SDS011;49809;47.418;19.080;2023-04-07T06:17:44;9.00;;;5.20;;
63653;SDS011;49809;47.418;19.080;2023-04-07T06:21:31;11.07;;;5.65;;
63653;SDS011;49809;47.418;19.080;2023-04-07T06:25:20;8.35;;;5.55;;
63653;SDS011;49809;47.418;19.080;2023-04-07T06:28:52;11.98;;;6.15;;
63653;SDS011;49809;47.418;19.080;2023-04-07T06:32:30;9.73;;;5.87;;
63653;SDS011;49809;47.418;19.080;2023-04-07T06:36:16;8.10;;;4.70;;
63653;SDS011;49809;47.418;19.080;2023-04-07T06:39:37;9.25;;;6.00;;
63653;SDS011;49809;47.418;19.080;2023-04-07T06:42:55;11.98;;;6.75;;
63653;SDS011;49809;47.418;19.080;2023-04-07T06:46:29;8.32;;;5.05;;
63653;SDS011;49809;47.418;19.080;2023-04-07T06:50:05;9.57;;;5.97;;
63653;SDS011;49809;47.418;19.080;2023-04-07T06:53:23;9.48;;;5.80;;
63653;SDS011;49809;47.418;19.080;2023-04-07T06:56:55;8.90;;;4.50;;
63653;SDS011;49809;47.418;19.080;2023-04-07T07:00:10;11.00;;;5.45;;
63653;SDS011;49809;47.418;19.080;2023-04-07T07:03:26;10.35;;;5.25;;
63653;SDS011;49809;47.418;19.080;2023-04-07T07:06:50;9.43;;;5.47;;
63653;SDS011;49809;47.418;19.080;2023-04-07T07:10:24;9.32;;;5.32;;
63653;SDS011;49809;47.418;19.080;2023-04-07T07:13:30;9.68;;;5.25;;
63653;SDS011;49809;47.418;19.080;2023-04-07T07:16:58;8.40;;;5.55;;
63653;SDS011;49809;47.418;19.080;2023-04-07T07:20:02;9.82;;;5.68;;
63653;SDS011;49809;47.418;19.080;2023-04-07T07:23:43;8.27;;;5.60;;
63653;SDS011;49809;47.418;19.080;2023-04-07T07:26:52;10.63;;;5.78;;
63653;SDS011;49809;47.418;19.080;2023-04-07T07:30:32;9.15;;;5.55;;
63653;SDS011;49809;47.418;19.080;2023-04-07T07:34:04;10.18;;;5.78;;
63653;SDS011;49809;47.418;19.080;2023-04-07T07:37:21;13.23;;;7.43;;
63653;SDS011;49809;47.418;19.080;2023-04-07T07:40:57;10.65;;;5.95;;
63653;SDS011;49809;47.418;19.080;2023-04-07T07:52:23;8.00;;;5.23;;
63653;SDS011;49809;47.418;19.080;2023-04-07T07:59:32;12.32;;;6.85;;
63653;SDS011;49809;47.418;19.080;2023-04-07T08:02:56;10.95;;;6.57;;
63653;SDS011;49809;47.418;19.080;2023-04-07T08:06:37;12.27;;;6.18;;
63653;SDS011;49809;47.418;19.080;2023-04-07T08:10:01;12.10;;;7.28;;
63653;SDS011;49809;47.418;19.080;2023-04-07T08:13:27;10.85;;;5.82;;
63653;SDS011;49809;47.418;19.080;2023-04-07T08:17:10;12.13;;;6.97;;
63653;SDS011;49809;47.418;19.080;2023-04-07T08:20:42;10.57;;;6.18;;
63653;SDS011;49809;47.418;19.080;2023-04-07T08:24:12;11.05;;;6.32;;
63653;SDS011;49809;47.418;19.080;2023-04-07T08:27:36;12.13;;;6.95;;
63653;SDS011;49809;47.418;19.080;2023-04-07T08:31:02;11.68;;;6.28;;
63653;SDS011;49809;47.418;19.080;2023-04-07T08:34:08;10.48;;;6.35;;
63653;SDS011;49809;47.418;19.080;2023-04-07T08:37:36;13.55;;;7.25;;
63653;SDS011;49809;47.418;19.080;2023-04-07T08:41:19;14.30;;;7.22;;
63653;SDS011;49809;47.418;19.080;2023-04-07T08:44:30;13.30;;;6.90;;
63653;SDS011;49809;47.418;19.080;2023-04-07T08:47:36;17.70;;;8.57;;
63653;SDS011;49809;47.418;19.080;2023-04-07T08:51:16;10.98;;;7.07;;
63653;SDS011;49809;47.418;19.080;2023-04-07T08:55:04;11.73;;;6.45;;
63653;SDS011;49809;47.418;19.080;2023-04-07T09:02:15;12.15;;;6.75;;
63653;SDS011;49809;47.418;19.080;2023-04-07T09:05:20;13.32;;;8.07;;
63653;SDS011;49809;47.418;19.080;2023-04-07T09:08:27;11.57;;;7.32;;
63653;SDS011;49809;47.418;19.080;2023-04-07T09:11:33;12.85;;;7.28;;
63653;SDS011;49809;47.418;19.080;2023-04-07T09:15:02;13.52;;;7.35;;
63653;SDS011;49809;47.418;19.080;2023-04-07T09:18:07;12.27;;;7.15;;
63653;SDS011;49809;47.418;19.080;2023-04-07T09:21:12;14.05;;;8.32;;
63653;SDS011;49809;47.418;19.080;2023-04-07T09:24:21;13.10;;;7.22;;
63653;SDS011;49809;47.418;19.080;2023-04-07T09:27:30;12.95;;;7.50;;
63653;SDS011;49809;47.418;19.080;2023-04-07T09:33:41;12.80;;;7.03;;
63653;SDS011;49809;47.418;19.080;2023-04-07T09:36:45;14.30;;;7.95;;
63653;SDS011;49809;47.418;19.080;2023-04-07T09:39:49;13.43;;;7.90;;
63653;SDS011;49809;47.418;19.080;2023-04-07T09:42:54;14.00;;;7.53;;
63653;SDS011;49809;47.418;19.080;2023-04-07T09:46:21;12.55;;;8.02;;
63653;SDS011;49809;47.418;19.080;2023-04-07T09:49:27;13.77;;;7.68;;
63653;SDS011;49809;47.418;19.080;2023-04-07T09:52:52;13.43;;;8.35;;
63653;SDS011;49809;47.418;19.080;2023-04-07T09:55:55;14.30;;;8.73;;
63653;SDS011;49809;47.418;19.080;2023-04-07T09:59:00;13.95;;;8.20;;
63653;SDS011;49809;47.418;19.080;2023-04-07T10:02:04;17.80;;;7.80;;
63653;SDS011;49809;47.418;19.080;2023-04-07T10:05:10;12.73;;;7.97;;
63653;SDS011;49809;47.418;19.080;2023-04-07T10:08:15;15.20;;;8.00;;
63653;SDS011;49809;47.418;19.080;2023-04-07T10:11:26;14.30;;;7.32;;
63653;SDS011;49809;47.418;19.080;2023-04-07T10:14:29;13.65;;;7.62;;
63653;SDS011;49809;47.418;19.080;2023-04-07T10:17:39;15.38;;;8.63;;
63653;SDS011;49809;47.418;19.080;2023-04-07T10:21:08;12.48;;;7.20;;
63653;SDS011;49809;47.418;19.080;2023-04-07T10:28:25;12.90;;;7.82;;
63653;SDS011;49809;47.418;19.080;2023-04-07T10:31:48;13.95;;;7.40;;
63653;SDS011;49809;47.418;19.080;2023-04-07T10:54:15;12.90;;;6.60;;
63653;SDS011;49809;47.418;19.080;2023-04-07T11:10:10;13.20;;;7.20;;
63653;SDS011;49809;47.418;19.080;2023-04-07T12:21:37;14.45;;;7.72;;
63653;SDS011;49809;47.418;19.080;2023-04-07T12:24:59;10.90;;;6.40;;
63653;SDS011;49809;47.418;19.080;2023-04-07T12:28:24;13.75;;;7.25;;
63653;SDS011;49809;47.418;19.080;2023-04-07T12:31:43;13.40;;;7.60;;
63653;SDS011;49809;47.418;19.080;2023-04-07T12:35:18;12.05;;;7.07;;
63653;SDS011;49809;47.418;19.080;2023-04-07T12:38:57;13.27;;;6.93;;
63653;SDS011;49809;47.418;19.080;2023-04-07T12:42:27;11.73;;;7.25;;
63653;SDS011;49809;47.418;19.080;2023-04-07T12:46:02;18.87;;;8.40;;
63653;SDS011;49809;47.418;19.080;2023-04-07T12:49:30;17.00;;;8.32;;
63653;SDS011;49809;47.418;19.080;2023-04-07T12:53:03;15.48;;;7.60;;
63653;SDS011;49809;47.418;19.080;2023-04-07T12:56:42;14.95;;;7.68;;
63653;SDS011;49809;47.418;19.080;2023-04-07T13:00:19;17.27;;;8.32;;
63653;SDS011;49809;47.418;19.080;2023-04-07T13:03:55;15.05;;;8.32;;
63653;SDS011;49809;47.418;19.080;2023-04-07T13:07:39;12.57;;;6.35;;
63653;SDS011;49809;47.418;19.080;2023-04-07T13:11:16;14.57;;;7.57;;
63653;SDS011;49809;47.418;19.080;2023-04-07T13:14:38;15.07;;;7.82;;
63653;SDS011;49809;47.418;19.080;2023-04-07T13:18:11;16.55;;;8.68;;
63653;SDS011;49809;47.418;19.080;2023-04-07T13:21:49;14.80;;;8.30;;
63653;SDS011;49809;47.418;19.080;2023-04-07T13:28:47;12.57;;;7.30;;
63653;SDS011;49809;47.418;19.080;2023-04-07T13:32:06;12.57;;;7.55;;
63653;SDS011;49809;47.418;19.080;2023-04-07T13:35:40;15.07;;;7.78;;
63653;SDS011;49809;47.418;19.080;2023-04-07T13:39:01;16.52;;;8.02;;
63653;SDS011;49809;47.418;19.080;2023-04-07T13:42:36;15.38;;;8.63;;
63653;SDS011;49809;47.418;19.080;2023-04-07T13:46:11;16.40;;;7.82;;
63653;SDS011;49809;47.418;19.080;2023-04-07T13:50:02;14.05;;;8.23;;
63653;SDS011;49809;47.418;19.080;2023-04-07T13:53:43;16.08;;;7.53;;
63653;SDS011;49809;47.418;19.080;2023-04-07T13:57:19;12.55;;;6.68;;
63653;SDS011;49809;47.418;19.080;2023-04-07T14:00:46;17.45;;;8.85;;
63653;SDS011;49809;47.418;19.080;2023-04-07T14:04:26;15.70;;;8.50;;
63653;SDS011;49809;47.418;19.080;2023-04-07T14:07:47;14.30;;;7.85;;
63653;SDS011;49809;47.418;19.080;2023-04-07T14:11:15;17.15;;;8.80;;
63653;SDS011;49809;47.418;19.080;2023-04-07T14:18:06;14.55;;;8.70;;
63653;SDS011;49809;47.418;19.080;2023-04-07T14:21:42;13.85;;;7.72;;
63653;SDS011;49809;47.418;19.080;2023-04-07T14:25:14;14.18;;;8.30;;
63653;SDS011;49809;47.418;19.080;2023-04-07T14:28:39;13.38;;;8.35;;
63653;SDS011;49809;47.418;19.080;2023-04-07T14:54:11;13.15;;;7.07;;
63653;SDS011;49809;47.418;19.080;2023-04-07T15:00:53;15.60;;;8.07;;
63653;SDS011;49809;47.418;19.080;2023-04-07T15:04:28;12.05;;;6.80;;
63653;SDS011;49809;47.418;19.080;2023-04-07T15:08:07;31.15;;;12.90;;
63653;SDS011;49809;47.418;19.080;2023-04-07T15:14:51;17.12;;;7.57;;
63653;SDS011;49809;47.418;19.080;2023-04-07T15:18:33;16.80;;;7.85;;
63653;SDS011;49809;47.418;19.080;2023-04-07T15:21:52;14.18;;;7.35;;
63653;SDS011;49809;47.418;19.080;2023-04-07T15:25:21;13.25;;;7.40;;
63653;SDS011;49809;47.418;19.080;2023-04-07T15:28:40;14.43;;;8.13;;
63653;SDS011;49809;47.418;19.080;2023-04-07T15:32:07;12.18;;;7.00;;
63653;SDS011;49809;47.418;19.080;2023-04-07T15:35:44;14.82;;;8.02;;
63653;SDS011;49809;47.418;19.080;2023-04-07T15:39:17;16.40;;;8.20;;
63653;SDS011;49809;47.418;19.080;2023-04-07T15:42:32;15.32;;;7.80;;
63653;SDS011;49809;47.418;19.080;2023-04-07T15:45:55;12.10;;;7.68;;
63653;SDS011;49809;47.418;19.080;2023-04-07T15:49:33;14.10;;;7.57;;
63653;SDS011;49809;47.418;19.080;2023-04-07T16:04:39;19.73;;;9.05;;
63653;SDS011;49809;47.418;19.080;2023-04-07T16:08:24;14.60;;;7.55;;
63653;SDS011;49809;47.418;19.080;2023-04-07T16:11:28;12.25;;;6.12;;
63653;SDS011;49809;47.418;19.080;2023-04-07T16:14:48;20.37;;;9.63;;
63653;SDS011;49809;47.418;19.080;2023-04-07T16:18:22;13.77;;;7.53;;
63653;SDS011;49809;47.418;19.080;2023-04-07T16:21:59;14.90;;;8.13;;
63653;SDS011;49809;47.418;19.080;2023-04-07T16:25:40;15.20;;;8.32;;
63653;SDS011;49809;47.418;19.080;2023-04-07T16:29:20;11.60;;;6.93;;
63653;SDS011;49809;47.418;19.080;2023-04-07T16:32:56;11.73;;;6.78;;
63653;SDS011;49809;47.418;19.080;2023-04-07T16:36:33;14.70;;;8.73;;
63653;SDS011;49809;47.418;19.080;2023-04-07T16:39:58;15.43;;;7.97;;
63653;SDS011;49809;47.418;19.080;2023-04-07T16:43:26;17.73;;;7.57;;
63653;SDS011;49809;47.418;19.080;2023-04-07T16:47:03;14.20;;;6.75;;
63653;SDS011;49809;47.418;19.080;2023-04-07T16:50:40;14.63;;;7.82;;
63653;SDS011;49809;47.418;19.080;2023-04-07T16:54:20;23.30;;;9.32;;
63653;SDS011;49809;47.418;19.080;2023-04-07T17:01:10;18.95;;;9.10;;
63653;SDS011;49809;47.418;19.080;2023-04-07T17:04:29;15.30;;;8.45;;
63653;SDS011;49809;47.418;19.080;2023-04-07T17:07:56;11.20;;;6.93;;
63653;SDS011;49809;47.418;19.080;2023-04-07T17:11:27;14.75;;;6.72;;
63653;SDS011;49809;47.418;19.080;2023-04-07T17:14:44;15.88;;;8.27;;
63653;SDS011;49809;47.418;19.080;2023-04-07T17:18:10;13.45;;;7.43;;
63653;SDS011;49809;47.418;19.080;2023-04-07T17:25:24;13.90;;;6.47;;
63653;SDS011;49809;47.418;19.080;2023-04-07T17:29:00;11.75;;;5.95;;
63653;SDS011;49809;47.418;19.080;2023-04-07T17:32:20;11.02;;;6.62;;
63653;SDS011;49809;47.418;19.080;2023-04-07T17:36:08;14.20;;;7.43;;
63653;SDS011;49809;47.418;19.080;2023-04-07T17:39:23;15.10;;;7.53;;
63653;SDS011;49809;47.418;19.080;2023-04-07T17:42:58;13.20;;;7.37;;
63653;SDS011;49809;47.418;19.080;2023-04-07T17:46:35;15.48;;;7.82;;
63653;SDS011;49809;47.418;19.080;2023-04-07T17:50:12;18.67;;;8.32;;
63653;SDS011;49809;47.418;19.080;2023-04-07T17:53:49;12.43;;;7.43;;
63653;SDS011;49809;47.418;19.080;2023-04-07T17:57:20;14.50;;;7.50;;
63653;SDS011;49809;47.418;19.080;2023-04-07T18:00:47;15.40;;;8.20;;
63653;SDS011;49809;47.418;19.080;2023-04-07T18:04:16;22.77;;;10.65;;
63653;SDS011;49809;47.418;19.080;2023-04-07T18:07:48;15.32;;;9.05;;
63653;SDS011;49809;47.418;19.080;2023-04-07T18:11:29;14.63;;;8.15;;
63653;SDS011;49809;47.418;19.080;2023-04-07T18:15:00;18.60;;;9.25;;
63653;SDS011;49809;47.418;19.080;2023-04-07T18:18:26;11.52;;;6.10;;
63653;SDS011;49809;47.418;19.080;2023-04-07T18:22:08;13.23;;;7.60;;
63653;SDS011;49809;47.418;19.080;2023-04-07T18:25:40;16.52;;;8.02;;
63653;SDS011;49809;47.418;19.080;2023-04-07T18:28:44;19.48;;;9.88;;
63653;SDS011;49809;47.418;19.080;2023-04-07T18:31:47;16.73;;;8.25;;
63653;SDS011;49809;47.418;19.080;2023-04-07T18:34:53;19.33;;;8.23;;
63653;SDS011;49809;47.418;19.080;2023-04-07T18:37:58;16.52;;;8.90;;
63653;SDS011;49809;47.418;19.080;2023-04-07T18:41:02;13.18;;;7.25;;
63653;SDS011;49809;47.418;19.080;2023-04-07T18:44:11;16.08;;;8.90;;
63653;SDS011;49809;47.418;19.080;2023-04-07T18:47:15;13.90;;;7.45;;
63653;SDS011;49809;47.418;19.080;2023-04-07T18:50:18;19.45;;;8.80;;
63653;SDS011;49809;47.418;19.080;2023-04-07T18:53:22;11.30;;;6.90;;
63653;SDS011;49809;47.418;19.080;2023-04-07T18:56:29;15.00;;;7.50;;
63653;SDS011;49809;47.418;19.080;2023-04-07T18:59:32;15.43;;;8.02;;
63653;SDS011;49809;47.418;19.080;2023-04-07T19:02:35;15.35;;;7.62;;
63653;SDS011;49809;47.418;19.080;2023-04-07T19:05:50;17.90;;;8.27;;
63653;SDS011;49809;47.418;19.080;2023-04-07T19:09:02;14.57;;;7.55;;
63653;SDS011;49809;47.418;19.080;2023-04-07T19:12:20;14.10;;;8.27;;
63653;SDS011;49809;47.418;19.080;2023-04-07T19:15:26;18.15;;;9.73;;
63653;SDS011;49809;47.418;19.080;2023-04-07T19:18:36;19.70;;;9.00;;
63653;SDS011;49809;47.418;19.080;2023-04-07T19:21:39;20.30;;;9.77;;
63653;SDS011;49809;47.418;19.080;2023-04-07T19:24:46;16.05;;;8.10;;
63653;SDS011;49809;47.418;19.080;2023-04-07T19:27:50;17.05;;;8.32;;
63653;SDS011;49809;47.418;19.080;2023-04-07T19:31:03;17.70;;;8.85;;
63653;SDS011;49809;47.418;19.080;2023-04-07T19:34:07;16.27;;;9.63;;
63653;SDS011;49809;47.418;19.080;2023-04-07T19:37:12;15.63;;;7.95;;
63653;SDS011;49809;47.418;19.080;2023-04-07T19:40:21;18.35;;;9.65;;
63653;SDS011;49809;47.418;19.080;2023-04-07T19:43:29;17.02;;;9.45;;
63653;SDS011;49809;47.418;19.080;2023-04-07T19:46:52;17.50;;;8.85;;
63653;SDS011;49809;47.418;19.080;2023-04-07T19:49:58;22.17;;;10.35;;
63653;SDS011;49809;47.418;19.080;2023-04-07T19:53:01;17.12;;;8.95;;
63653;SDS011;49809;47.418;19.080;2023-04-07T19:56:05;17.55;;;8.15;;
63653;SDS011;49809;47.418;19.080;2023-04-07T19:59:08;15.85;;;8.05;;
63653;SDS011;49809;47.418;19.080;2023-04-07T20:02:11;20.90;;;10.30;;
63653;SDS011;49809;47.418;19.080;2023-04-07T20:05:15;16.75;;;8.65;;
63653;SDS011;49809;47.418;19.080;2023-04-07T20:08:21;19.92;;;8.32;;
63653;SDS011;49809;47.418;19.080;2023-04-07T20:11:44;13.07;;;7.50;;
63653;SDS011;49809;47.418;19.080;2023-04-07T20:14:51;14.05;;;8.30;;
63653;SDS011;49809;47.418;19.080;2023-04-07T20:17:58;10.57;;;6.85;;
63653;SDS011;49809;47.418;19.080;2023-04-07T20:21:03;13.80;;;7.28;;
63653;SDS011;49809;47.418;19.080;2023-04-07T20:24:11;15.75;;;8.32;;
63653;SDS011;49809;47.418;19.080;2023-04-07T20:27:15;18.25;;;9.70;;
63653;SDS011;49809;47.418;19.080;2023-04-07T20:30:21;19.00;;;9.55;;
63653;SDS011;49809;47.418;19.080;2023-04-07T20:33:24;18.92;;;8.75;;
63653;SDS011;49809;47.418;19.080;2023-04-07T20:36:28;17.58;;;8.70;;
63653;SDS011;49809;47.418;19.080;2023-04-07T20:39:50;18.65;;;7.50;;
63653;SDS011;49809;47.418;19.080;2023-04-07T20:42:54;14.23;;;8.20;;
63653;SDS011;49809;47.418;19.080;2023-04-07T20:45:58;16.25;;;7.97;;
63653;SDS011;49809;47.418;19.080;2023-04-07T20:49:11;15.82;;;7.75;;
63653;SDS011;49809;47.418;19.080;2023-04-07T20:52:43;15.60;;;8.65;;
63653;SDS011;49809;47.418;19.080;2023-04-07T20:55:46;12.70;;;7.00;;
63653;SDS011;49809;47.418;19.080;2023-04-07T20:58:49;17.95;;;9.73;;
63653;SDS011;49809;47.418;19.080;2023-04-07T21:01:56;12.37;;;8.23;;
63653;SDS011;49809;47.418;19.080;2023-04-07T21:05:00;16.73;;;6.97;;
63653;SDS011;49809;47.418;19.080;2023-04-07T21:08:07;14.70;;;8.43;;
63653;SDS011;49809;47.418;19.080;2023-04-07T21:11:18;16.70;;;8.95;;
63653;SDS011;49809;47.418;19.080;2023-04-07T21:14:32;15.30;;;6.87;;
63653;SDS011;49809;47.418;19.080;2023-04-07T21:17:36;16.08;;;7.35;;
63653;SDS011;49809;47.418;19.080;2023-04-07T21:21:02;13.60;;;6.47;;
63653;SDS011;49809;47.418;19.080;2023-04-07T21:24:06;14.75;;;7.47;;
63653;SDS011;49809;47.418;19.080;2023-04-07T21:27:09;14.77;;;7.82;;
63653;SDS011;49809;47.418;19.080;2023-04-07T21:30:13;12.63;;;6.07;;
63653;SDS011;49809;47.418;19.080;2023-04-07T21:33:19;15.82;;;7.90;;
63653;SDS011;49809;47.418;19.080;2023-04-07T21:36:27;17.60;;;8.32;;
63653;SDS011;49809;47.418;19.080;2023-04-07T21:40:09;13.68;;;6.82;;
63653;SDS011;49809;47.418;19.080;2023-04-07T21:43:21;11.05;;;6.80;;
63653;SDS011;49809;47.418;19.080;2023-04-07T21:47:10;12.35;;;7.10;;
63653;SDS011;49809;47.418;19.080;2023-04-07T21:50:16;14.80;;;7.82;;
63653;SDS011;49809;47.418;19.080;2023-04-07T21:53:23;13.62;;;7.65;;
63653;SDS011;49809;47.418;19.080;2023-04-07T21:56:46;12.60;;;7.47;;
63653;SDS011;49809;47.418;19.080;2023-04-07T21:59:56;14.35;;;7.80;;
63653;SDS011;49809;47.418;19.080;2023-04-07T22:03:00;11.98;;;6.90;;
63653;SDS011;49809;47.418;19.080;2023-04-07T22:06:07;11.88;;;5.47;;
63653;SDS011;49809;47.418;19.080;2023-04-07T22:09:11;9.10;;;5.90;;
63653;SDS011;49809;47.418;19.080;2023-04-07T22:12:14;9.25;;;6.03;;
63653;SDS011;49809;47.418;19.080;2023-04-07T22:15:17;10.63;;;5.05;;
63653;SDS011;49809;47.418;19.080;2023-04-07T22:18:21;11.15;;;6.07;;
63653;SDS011;49809;47.418;19.080;2023-04-07T22:21:26;16.27;;;7.45;;
63653;SDS011;49809;47.418;19.080;2023-04-07T22:24:56;8.38;;;5.35;;
63653;SDS011;49809;47.418;19.080;2023-04-07T22:28:25;10.45;;;5.50;;
63653;SDS011;49809;47.418;19.080;2023-04-07T22:31:28;12.57;;;6.90;;
63653;SDS011;49809;47.418;19.080;2023-04-07T22:34:34;10.60;;;6.20;;
63653;SDS011;49809;47.418;19.080;2023-04-07T22:37:40;12.15;;;6.18;;
63653;SDS011;49809;47.418;19.080;2023-04-07T22:40:44;11.40;;;6.35;;
63653;SDS011;49809;47.418;19.080;2023-04-07T22:43:47;10.70;;;6.20;;
63653;SDS011;49809;47.418;19.080;2023-04-07T22:46:52;10.07;;;6.62;;
63653;SDS011;49809;47.418;19.080;2023-04-07T22:50:10;11.55;;;6.32;;
63653;SDS011;49809;47.418;19.080;2023-04-07T22:53:16;7.37;;;5.62;;
63653;SDS011;49809;47.418;19.080;2023-04-07T22:56:20;11.80;;;6.45;;
63653;SDS011;49809;47.418;19.080;2023-04-07T22:59:24;10.75;;;5.93;;
63653;SDS011;49809;47.418;19.080;2023-04-07T23:02:30;12.05;;;5.95;;
63653;SDS011;49809;47.418;19.080;2023-04-07T23:05:34;10.60;;;6.00;;
63653;SDS011;49809;47.418;19.080;2023-04-07T23:09:13;10.60;;;5.87;;
63653;SDS011;49809;47.418;19.080;2023-04-07T23:12:17;10.60;;;6.40;;
63653;SDS011;49809;47.418;19.080;2023-04-07T23:15:40;13.80;;;7.00;;
63653;SDS011;49809;47.418;19.080;2023-04-07T23:18:43;14.80;;;7.65;;
63653;SDS011;49809;47.418;19.080;2023-04-07T23:22:09;13.93;;;6.53;;
63653;SDS011;49809;47.418;19.080;2023-04-07T23:25:13;13.70;;;7.00;;
63653;SDS011;49809;47.418;19.080;2023-04-07T23:28:34;12.77;;;6.37;;
63653;SDS011;49809;47.418;19.080;2023-04-07T23:31:38;10.93;;;6.22;;
63653;SDS011;49809;47.418;19.080;2023-04-07T23:34:44;10.98;;;6.72;;
63653;SDS011;49809;47.418;19.080;2023-04-07T23:37:55;10.73;;;6.30;;
63653;SDS011;49809;47.418;19.080;2023-04-07T23:41:01;13.75;;;5.85;;
63653;SDS011;49809;47.418;19.080;2023-04-07T23:44:04;13.60;;;6.22;;